sensor_id;sensor_type;location;lat;lon;timestamp;P1;durP1;ratioP1;P2;durP2;ratioP2
46266;SDS011;31998;48.798;15.066;2022-09-12T00:02:18;185.90;;;5.67;;
46266;SDS011;31998;48.798;15.066;2022-09-12T00:04:43;1.70;;;0.70;;
46266;SDS011;31998;48.798;15.066;2022-09-12T00:07:09;158.93;;;5.07;;
46266;SDS011;31998;48.798;15.066;2022-09-12T00:09:34;22.07;;;0.80;;
46266;SDS011;31998;48.798;15.066;2022-09-12T00:11:59;140.37;;;4.93;;
46266;SDS011;31998;48.798;15.066;2022-09-12T00:14:25;151.93;;;4.47;;
46266;SDS011;31998;48.798;15.066;2022-09-12T00:16:50;258.40;;;6.23;;
46266;SDS011;31998;48.798;15.066;2022-09-12T00:19:16;3.30;;;1.10;;
46266;SDS011;31998;48.798;15.066;2022-09-12T00:21:42;6.50;;;1.40;;
46266;SDS011;31998;48.798;15.066;2022-09-12T00:24:08;2.03;;;1.60;;
46266;SDS011;31998;48.798;15.066;2022-09-12T00:26:34;1.00;;;1.00;;
46266;SDS011;31998;48.798;15.066;2022-09-12T00:29:00;143.47;;;6.83;;
46266;SDS011;31998;48.798;15.066;2022-09-12T00:31:26;414.73;;;13.63;;
46266;SDS011;31998;48.798;15.066;2022-09-12T00:33:53;62.30;;;7.50;;
46266;SDS011;31998;48.798;15.066;2022-09-12T00:36:25;76.90;;;3.47;;
46266;SDS011;31998;48.798;15.066;2022-09-12T00:38:54;9.00;;;1.03;;
46266;SDS011;31998;48.798;15.066;2022-09-12T00:41:21;0.70;;;0.70;;
46266;SDS011;31998;48.798;15.066;2022-09-12T00:43:53;7.80;;;0.80;;
46266;SDS011;31998;48.798;15.066;2022-09-12T00:52:11;494.97;;;18.60;;
46266;SDS011;31998;48.798;15.066;2022-09-12T00:57:17;2.43;;;1.17;;
46266;SDS011;31998;48.798;15.066;2022-09-12T00:59:52;7.23;;;0.90;;
46266;SDS011;31998;48.798;15.066;2022-09-12T01:02:23;10.93;;;2.13;;
46266;SDS011;31998;48.798;15.066;2022-09-12T01:04:48;7.63;;;1.90;;
46266;SDS011;31998;48.798;15.066;2022-09-12T01:07:14;305.03;;;10.50;;
46266;SDS011;31998;48.798;15.066;2022-09-12T01:09:41;13.40;;;1.93;;
46266;SDS011;31998;48.798;15.066;2022-09-12T01:12:09;6.13;;;1.43;;
46266;SDS011;31998;48.798;15.066;2022-09-12T01:14:35;104.50;;;3.17;;
46266;SDS011;31998;48.798;15.066;2022-09-12T01:17:00;19.07;;;0.80;;
46266;SDS011;31998;48.798;15.066;2022-09-12T01:22:35;278.13;;;7.70;;
46266;SDS011;31998;48.798;15.066;2022-09-12T01:28:19;25.03;;;1.40;;
46266;SDS011;31998;48.798;15.066;2022-09-12T01:33:33;22.77;;;1.67;;
46266;SDS011;31998;48.798;15.066;2022-09-12T01:49:35;5.27;;;1.53;;
46266;SDS011;31998;48.798;15.066;2022-09-12T01:52:19;6.13;;;2.20;;
46266;SDS011;31998;48.798;15.066;2022-09-12T01:54:54;42.93;;;3.27;;
46266;SDS011;31998;48.798;15.066;2022-09-12T01:57:30;155.37;;;7.97;;
46266;SDS011;31998;48.798;15.066;2022-09-12T02:00:03;6.03;;;2.03;;
46266;SDS011;31998;48.798;15.066;2022-09-12T02:02:33;57.63;;;2.30;;
46266;SDS011;31998;48.798;15.066;2022-09-12T02:05:06;112.57;;;4.20;;
46266;SDS011;31998;48.798;15.066;2022-09-12T02:07:35;23.83;;;2.00;;
46266;SDS011;31998;48.798;15.066;2022-09-12T02:10:05;43.23;;;3.80;;
46266;SDS011;31998;48.798;15.066;2022-09-12T02:12:42;150.73;;;4.13;;
46266;SDS011;31998;48.798;15.066;2022-09-12T02:15:11;1.63;;;1.63;;
46266;SDS011;31998;48.798;15.066;2022-09-12T02:17:41;92.67;;;4.63;;
46266;SDS011;31998;48.798;15.066;2022-09-12T02:22:50;3.20;;;2.10;;
46266;SDS011;31998;48.798;15.066;2022-09-12T02:25:18;2.30;;;2.10;;
46266;SDS011;31998;48.798;15.066;2022-09-12T02:30:12;2.10;;;2.10;;
46266;SDS011;31998;48.798;15.066;2022-09-12T02:40:23;0.50;;;0.50;;
46266;SDS011;31998;48.798;15.066;2022-09-12T02:42:49;17.07;;;1.50;;
46266;SDS011;31998;48.798;15.066;2022-09-12T02:45:15;2.93;;;0.63;;
46266;SDS011;31998;48.798;15.066;2022-09-12T02:47:49;7.80;;;0.67;;
46266;SDS011;31998;48.798;15.066;2022-09-12T02:50:21;20.07;;;1.23;;
46266;SDS011;31998;48.798;15.066;2022-09-12T02:52:46;90.30;;;3.50;;
46266;SDS011;31998;48.798;15.066;2022-09-12T02:55:12;84.27;;;3.33;;
46266;SDS011;31998;48.798;15.066;2022-09-12T02:57:38;18.13;;;1.20;;
46266;SDS011;31998;48.798;15.066;2022-09-12T03:00:04;14.07;;;1.53;;
46266;SDS011;31998;48.798;15.066;2022-09-12T03:13:45;97.80;;;3.33;;
46266;SDS011;31998;48.798;15.066;2022-09-12T03:16:43;70.37;;;3.00;;
46266;SDS011;31998;48.798;15.066;2022-09-12T03:24:46;18.53;;;2.97;;
46266;SDS011;31998;48.798;15.066;2022-09-12T03:27:24;2.43;;;2.37;;
46266;SDS011;31998;48.798;15.066;2022-09-12T03:29:55;2.73;;;2.50;;
46266;SDS011;31998;48.798;15.066;2022-09-12T03:35:14;6.40;;;3.20;;
46266;SDS011;31998;48.798;15.066;2022-09-12T03:37:41;1.47;;;1.47;;
46266;SDS011;31998;48.798;15.066;2022-09-12T03:40:07;206.27;;;8.60;;
46266;SDS011;31998;48.798;15.066;2022-09-12T03:42:34;56.77;;;3.60;;
46266;SDS011;31998;48.798;15.066;2022-09-12T03:44:59;2.00;;;1.90;;
46266;SDS011;31998;48.798;15.066;2022-09-12T03:47:25;11.17;;;2.90;;
46266;SDS011;31998;48.798;15.066;2022-09-12T03:49:50;5.37;;;3.10;;
46266;SDS011;31998;48.798;15.066;2022-09-12T03:52:16;15.03;;;3.60;;
46266;SDS011;31998;48.798;15.066;2022-09-12T03:54:42;8.17;;;2.47;;
46266;SDS011;31998;48.798;15.066;2022-09-12T03:57:08;3.23;;;2.00;;
46266;SDS011;31998;48.798;15.066;2022-09-12T03:59:33;2.33;;;2.13;;
46266;SDS011;31998;48.798;15.066;2022-09-12T04:01:59;2.00;;;2.00;;
46266;SDS011;31998;48.798;15.066;2022-09-12T04:04:24;4.00;;;2.23;;
46266;SDS011;31998;48.798;15.066;2022-09-12T04:06:49;3.10;;;2.90;;
46266;SDS011;31998;48.798;15.066;2022-09-12T04:09:15;3.20;;;3.10;;
46266;SDS011;31998;48.798;15.066;2022-09-12T04:11:40;6.80;;;3.27;;
46266;SDS011;31998;48.798;15.066;2022-09-12T04:14:06;8.77;;;2.77;;
46266;SDS011;31998;48.798;15.066;2022-09-12T04:16:31;8.43;;;3.40;;
46266;SDS011;31998;48.798;15.066;2022-09-12T04:18:57;3.47;;;3.10;;
46266;SDS011;31998;48.798;15.066;2022-09-12T04:21:22;3.60;;;3.40;;
46266;SDS011;31998;48.798;15.066;2022-09-12T04:23:48;5.83;;;3.33;;
46266;SDS011;31998;48.798;15.066;2022-09-12T04:26:13;4.27;;;4.17;;
46266;SDS011;31998;48.798;15.066;2022-09-12T04:28:43;4.27;;;3.87;;
46266;SDS011;31998;48.798;15.066;2022-09-12T04:31:11;13.03;;;3.90;;
46266;SDS011;31998;48.798;15.066;2022-09-12T04:33:39;5.90;;;3.50;;
46266;SDS011;31998;48.798;15.066;2022-09-12T04:36:06;3.93;;;3.53;;
46266;SDS011;31998;48.798;15.066;2022-09-12T04:38:41;10.63;;;4.27;;
46266;SDS011;31998;48.798;15.066;2022-09-12T04:41:13;5.30;;;4.80;;
46266;SDS011;31998;48.798;15.066;2022-09-12T04:43:51;33.47;;;5.10;;
46266;SDS011;31998;48.798;15.066;2022-09-12T04:46:26;5.27;;;4.63;;
46266;SDS011;31998;48.798;15.066;2022-09-12T04:48:53;6.03;;;5.07;;
46266;SDS011;31998;48.798;15.066;2022-09-12T04:51:19;5.60;;;5.20;;
46266;SDS011;31998;48.798;15.066;2022-09-12T04:53:48;7.50;;;6.63;;
46266;SDS011;31998;48.798;15.066;2022-09-12T04:56:15;9.60;;;6.13;;
46266;SDS011;31998;48.798;15.066;2022-09-12T04:58:40;15.43;;;5.03;;
46266;SDS011;31998;48.798;15.066;2022-09-12T05:01:10;6.10;;;5.70;;
46266;SDS011;31998;48.798;15.066;2022-09-12T05:03:37;6.13;;;5.73;;
46266;SDS011;31998;48.798;15.066;2022-09-12T05:06:04;5.10;;;4.77;;
46266;SDS011;31998;48.798;15.066;2022-09-12T05:08:31;7.53;;;6.73;;
46266;SDS011;31998;48.798;15.066;2022-09-12T05:11:00;7.57;;;6.00;;
46266;SDS011;31998;48.798;15.066;2022-09-12T05:13:27;9.00;;;8.10;;
46266;SDS011;31998;48.798;15.066;2022-09-12T05:15:56;15.47;;;8.60;;
46266;SDS011;31998;48.798;15.066;2022-09-12T05:18:23;12.73;;;8.10;;
46266;SDS011;31998;48.798;15.066;2022-09-12T05:20:48;12.00;;;9.60;;
46266;SDS011;31998;48.798;15.066;2022-09-12T05:23:14;10.10;;;8.67;;
46266;SDS011;31998;48.798;15.066;2022-09-12T05:25:46;11.17;;;8.20;;
46266;SDS011;31998;48.798;15.066;2022-09-12T05:28:22;9.90;;;8.90;;
46266;SDS011;31998;48.798;15.066;2022-09-12T05:30:58;10.60;;;8.93;;
46266;SDS011;31998;48.798;15.066;2022-09-12T05:33:27;11.47;;;9.60;;
46266;SDS011;31998;48.798;15.066;2022-09-12T05:35:52;9.53;;;7.90;;
46266;SDS011;31998;48.798;15.066;2022-09-12T05:38:18;10.60;;;8.50;;
46266;SDS011;31998;48.798;15.066;2022-09-12T05:40:43;11.23;;;9.40;;
46266;SDS011;31998;48.798;15.066;2022-09-12T05:43:08;15.33;;;10.33;;
46266;SDS011;31998;48.798;15.066;2022-09-12T05:45:36;11.50;;;10.30;;
46266;SDS011;31998;48.798;15.066;2022-09-12T05:48:02;10.90;;;8.90;;
46266;SDS011;31998;48.798;15.066;2022-09-12T05:50:28;12.10;;;10.20;;
46266;SDS011;31998;48.798;15.066;2022-09-12T05:52:53;8.23;;;7.53;;
46266;SDS011;31998;48.798;15.066;2022-09-12T05:55:19;8.00;;;7.27;;
46266;SDS011;31998;48.798;15.066;2022-09-12T05:57:45;7.83;;;7.13;;
46266;SDS011;31998;48.798;15.066;2022-09-12T06:00:11;7.27;;;6.53;;
46266;SDS011;31998;48.798;15.066;2022-09-12T06:02:38;8.40;;;7.40;;
46266;SDS011;31998;48.798;15.066;2022-09-12T06:05:04;7.07;;;6.40;;
46266;SDS011;31998;48.798;15.066;2022-09-12T06:07:30;6.13;;;5.83;;
46266;SDS011;31998;48.798;15.066;2022-09-12T06:09:56;11.53;;;6.93;;
46266;SDS011;31998;48.798;15.066;2022-09-12T06:12:23;7.50;;;6.90;;
46266;SDS011;31998;48.798;15.066;2022-09-12T06:14:51;7.80;;;7.13;;
46266;SDS011;31998;48.798;15.066;2022-09-12T06:17:16;8.17;;;7.53;;
46266;SDS011;31998;48.798;15.066;2022-09-12T06:19:42;7.93;;;7.40;;
46266;SDS011;31998;48.798;15.066;2022-09-12T06:22:08;8.63;;;7.40;;
46266;SDS011;31998;48.798;15.066;2022-09-12T06:24:33;8.80;;;8.10;;
46266;SDS011;31998;48.798;15.066;2022-09-12T06:26:59;11.57;;;8.37;;
46266;SDS011;31998;48.798;15.066;2022-09-12T06:29:26;10.03;;;9.30;;
46266;SDS011;31998;48.798;15.066;2022-09-12T06:31:51;12.43;;;8.90;;
46266;SDS011;31998;48.798;15.066;2022-09-12T06:34:17;17.13;;;10.10;;
46266;SDS011;31998;48.798;15.066;2022-09-12T06:36:44;11.47;;;10.37;;
46266;SDS011;31998;48.798;15.066;2022-09-12T06:39:12;22.03;;;12.80;;
46266;SDS011;31998;48.798;15.066;2022-09-12T06:41:40;14.37;;;11.93;;
46266;SDS011;31998;48.798;15.066;2022-09-12T06:44:06;18.53;;;15.03;;
46266;SDS011;31998;48.798;15.066;2022-09-12T06:46:31;21.27;;;16.37;;
46266;SDS011;31998;48.798;15.066;2022-09-12T06:48:58;20.57;;;16.70;;
46266;SDS011;31998;48.798;15.066;2022-09-12T06:51:25;16.83;;;15.13;;
46266;SDS011;31998;48.798;15.066;2022-09-12T06:53:52;16.57;;;14.93;;
46266;SDS011;31998;48.798;15.066;2022-09-12T06:56:20;15.67;;;14.00;;
46266;SDS011;31998;48.798;15.066;2022-09-12T06:58:47;21.23;;;14.23;;
46266;SDS011;31998;48.798;15.066;2022-09-12T07:01:18;16.27;;;14.63;;
46266;SDS011;31998;48.798;15.066;2022-09-12T07:03:48;21.87;;;14.70;;
46266;SDS011;31998;48.798;15.066;2022-09-12T07:06:15;19.03;;;14.50;;
46266;SDS011;31998;48.798;15.066;2022-09-12T07:08:42;16.30;;;12.67;;
46266;SDS011;31998;48.798;15.066;2022-09-12T07:13:33;15.00;;;13.60;;
46266;SDS011;31998;48.798;15.066;2022-09-12T07:16:02;17.07;;;15.30;;
46266;SDS011;31998;48.798;15.066;2022-09-12T07:18:29;15.93;;;14.23;;
46266;SDS011;31998;48.798;15.066;2022-09-12T07:20:55;15.23;;;13.70;;
46266;SDS011;31998;48.798;15.066;2022-09-12T07:23:20;14.93;;;13.20;;
46266;SDS011;31998;48.798;15.066;2022-09-12T07:25:53;14.57;;;13.03;;
46266;SDS011;31998;48.798;15.066;2022-09-12T07:28:21;14.97;;;13.30;;
46266;SDS011;31998;48.798;15.066;2022-09-12T07:30:48;14.80;;;13.30;;
46266;SDS011;31998;48.798;15.066;2022-09-12T07:33:13;13.60;;;12.30;;
46266;SDS011;31998;48.798;15.066;2022-09-12T07:35:39;13.80;;;12.50;;
46266;SDS011;31998;48.798;15.066;2022-09-12T07:38:04;13.27;;;11.97;;
46266;SDS011;31998;48.798;15.066;2022-09-12T07:40:30;13.67;;;12.30;;
46266;SDS011;31998;48.798;15.066;2022-09-12T07:42:55;12.33;;;11.07;;
46266;SDS011;31998;48.798;15.066;2022-09-12T07:45:20;13.20;;;11.90;;
46266;SDS011;31998;48.798;15.066;2022-09-12T07:47:46;13.60;;;12.40;;
46266;SDS011;31998;48.798;15.066;2022-09-12T07:50:11;17.57;;;13.80;;
46266;SDS011;31998;48.798;15.066;2022-09-12T07:52:37;13.83;;;12.30;;
46266;SDS011;31998;48.798;15.066;2022-09-12T07:55:02;15.83;;;12.47;;
46266;SDS011;31998;48.798;15.066;2022-09-12T07:57:28;27.07;;;24.30;;
46266;SDS011;31998;48.798;15.066;2022-09-12T07:59:53;18.63;;;16.80;;
46266;SDS011;31998;48.798;15.066;2022-09-12T08:02:18;14.13;;;12.90;;
46266;SDS011;31998;48.798;15.066;2022-09-12T08:04:45;14.30;;;12.83;;
46266;SDS011;31998;48.798;15.066;2022-09-12T08:07:12;13.83;;;12.43;;
46266;SDS011;31998;48.798;15.066;2022-09-12T08:09:38;13.57;;;12.27;;
46266;SDS011;31998;48.798;15.066;2022-09-12T08:12:03;13.50;;;12.30;;
46266;SDS011;31998;48.798;15.066;2022-09-12T08:14:29;18.03;;;16.13;;
46266;SDS011;31998;48.798;15.066;2022-09-12T08:16:54;16.00;;;12.53;;
46266;SDS011;31998;48.798;15.066;2022-09-12T08:19:19;13.57;;;11.67;;
46266;SDS011;31998;48.798;15.066;2022-09-12T08:21:46;12.33;;;11.33;;
46266;SDS011;31998;48.798;15.066;2022-09-12T08:24:12;9.80;;;8.67;;
46266;SDS011;31998;48.798;15.066;2022-09-12T08:26:37;10.90;;;9.90;;
46266;SDS011;31998;48.798;15.066;2022-09-12T08:29:03;10.60;;;9.70;;
46266;SDS011;31998;48.798;15.066;2022-09-12T08:31:29;11.63;;;10.43;;
46266;SDS011;31998;48.798;15.066;2022-09-12T08:34:00;12.90;;;8.40;;
46266;SDS011;31998;48.798;15.066;2022-09-12T08:36:27;9.37;;;8.53;;
46266;SDS011;31998;48.798;15.066;2022-09-12T08:38:57;10.37;;;9.33;;
46266;SDS011;31998;48.798;15.066;2022-09-12T08:41:28;8.87;;;8.10;;
46266;SDS011;31998;48.798;15.066;2022-09-12T08:46:45;11.00;;;9.40;;
46266;SDS011;31998;48.798;15.066;2022-09-12T08:49:53;14.23;;;8.90;;
46266;SDS011;31998;48.798;15.066;2022-09-12T08:54:57;9.13;;;8.43;;
46266;SDS011;31998;48.798;15.066;2022-09-12T08:57:24;11.23;;;10.13;;
46266;SDS011;31998;48.798;15.066;2022-09-12T08:59:50;9.70;;;8.80;;
46266;SDS011;31998;48.798;15.066;2022-09-12T09:05:03;9.23;;;8.30;;
46266;SDS011;31998;48.798;15.066;2022-09-12T09:10:52;16.50;;;9.13;;
46266;SDS011;31998;48.798;15.066;2022-09-12T09:13:37;11.83;;;9.00;;
46266;SDS011;31998;48.798;15.066;2022-09-12T09:16:42;9.23;;;8.37;;
46266;SDS011;31998;48.798;15.066;2022-09-12T09:19:11;10.97;;;10.07;;
46266;SDS011;31998;48.798;15.066;2022-09-12T09:21:51;11.77;;;10.60;;
46266;SDS011;31998;48.798;15.066;2022-09-12T09:24:27;9.07;;;8.30;;
46266;SDS011;31998;48.798;15.066;2022-09-12T09:27:01;9.80;;;8.70;;
46266;SDS011;31998;48.798;15.066;2022-09-12T09:29:38;9.37;;;8.10;;
46266;SDS011;31998;48.798;15.066;2022-09-12T09:32:17;9.23;;;8.20;;
46266;SDS011;31998;48.798;15.066;2022-09-12T09:34:46;22.90;;;9.03;;
46266;SDS011;31998;48.798;15.066;2022-09-12T09:45:21;7.53;;;6.83;;
46266;SDS011;31998;48.798;15.066;2022-09-12T09:48:31;8.50;;;7.47;;
46266;SDS011;31998;48.798;15.066;2022-09-12T09:50:39;7.63;;;7.00;;
46266;SDS011;31998;48.798;15.066;2022-09-12T09:53:08;12.53;;;7.23;;
46266;SDS011;31998;48.798;15.066;2022-09-12T09:55:50;6.43;;;5.83;;
46266;SDS011;31998;48.798;15.066;2022-09-12T09:58:29;6.40;;;5.90;;
46266;SDS011;31998;48.798;15.066;2022-09-12T10:00:59;7.13;;;6.47;;
46266;SDS011;31998;48.798;15.066;2022-09-12T10:03:59;6.70;;;6.20;;
46266;SDS011;31998;48.798;15.066;2022-09-12T10:08:45;6.00;;;5.60;;
46266;SDS011;31998;48.798;15.066;2022-09-12T10:16:16;5.37;;;5.07;;
46266;SDS011;31998;48.798;15.066;2022-09-12T10:18:45;5.13;;;4.83;;
46266;SDS011;31998;48.798;15.066;2022-09-12T10:21:12;6.23;;;5.73;;
46266;SDS011;31998;48.798;15.066;2022-09-12T10:23:58;5.50;;;5.00;;
46266;SDS011;31998;48.798;15.066;2022-09-12T10:26:25;5.60;;;5.03;;
46266;SDS011;31998;48.798;15.066;2022-09-12T10:28:55;4.90;;;4.50;;
46266;SDS011;31998;48.798;15.066;2022-09-12T10:31:54;5.27;;;4.80;;
46266;SDS011;31998;48.798;15.066;2022-09-12T10:34:25;4.73;;;4.43;;
46266;SDS011;31998;48.798;15.066;2022-09-12T10:36:59;4.43;;;4.13;;
46266;SDS011;31998;48.798;15.066;2022-09-12T10:39:33;3.70;;;3.50;;
46266;SDS011;31998;48.798;15.066;2022-09-12T10:42:00;3.77;;;3.53;;
46266;SDS011;31998;48.798;15.066;2022-09-12T10:44:31;4.27;;;3.90;;
46266;SDS011;31998;48.798;15.066;2022-09-12T10:46:59;5.67;;;3.53;;
46266;SDS011;31998;48.798;15.066;2022-09-12T10:49:43;4.20;;;3.97;;
46266;SDS011;31998;48.798;15.066;2022-09-12T10:52:21;3.67;;;3.47;;
46266;SDS011;31998;48.798;15.066;2022-09-12T10:54:49;4.17;;;3.97;;
46266;SDS011;31998;48.798;15.066;2022-09-12T11:02:13;5.03;;;4.40;;
46266;SDS011;31998;48.798;15.066;2022-09-12T11:05:02;4.70;;;4.40;;
46266;SDS011;31998;48.798;15.066;2022-09-12T11:07:53;4.20;;;4.00;;
46266;SDS011;31998;48.798;15.066;2022-09-12T11:16:37;3.77;;;3.50;;
46266;SDS011;31998;48.798;15.066;2022-09-12T11:22:04;3.03;;;2.93;;
46266;SDS011;31998;48.798;15.066;2022-09-12T11:30:17;3.40;;;3.20;;
46266;SDS011;31998;48.798;15.066;2022-09-12T11:35:32;3.37;;;3.17;;
46266;SDS011;31998;48.798;15.066;2022-09-12T11:38:09;2.90;;;2.80;;
46266;SDS011;31998;48.798;15.066;2022-09-12T11:43:53;3.47;;;3.17;;
46266;SDS011;31998;48.798;15.066;2022-09-12T11:46:32;3.77;;;3.37;;
46266;SDS011;31998;48.798;15.066;2022-09-12T11:51:59;2.80;;;2.63;;
46266;SDS011;31998;48.798;15.066;2022-09-12T11:54:43;3.27;;;3.07;;
46266;SDS011;31998;48.798;15.066;2022-09-12T12:00:16;3.83;;;2.60;;
46266;SDS011;31998;48.798;15.066;2022-09-12T12:05:52;5.17;;;3.33;;
46266;SDS011;31998;48.798;15.066;2022-09-12T12:08:22;4.53;;;2.77;;
46266;SDS011;31998;48.798;15.066;2022-09-12T12:10:55;5.50;;;3.17;;
46266;SDS011;31998;48.798;15.066;2022-09-12T12:15:58;2.60;;;2.40;;
46266;SDS011;31998;48.798;15.066;2022-09-12T12:18:28;3.10;;;2.90;;
46266;SDS011;31998;48.798;15.066;2022-09-12T12:20:55;3.07;;;2.97;;
46266;SDS011;31998;48.798;15.066;2022-09-12T12:23:40;2.53;;;2.43;;
46266;SDS011;31998;48.798;15.066;2022-09-12T12:29:08;2.87;;;2.77;;
46266;SDS011;31998;48.798;15.066;2022-09-12T12:37:47;2.37;;;2.20;;
46266;SDS011;31998;48.798;15.066;2022-09-12T12:45:00;1.53;;;1.50;;
46266;SDS011;31998;48.798;15.066;2022-09-12T12:47:32;6.83;;;1.87;;
46266;SDS011;31998;48.798;15.066;2022-09-12T12:50:26;2.53;;;2.43;;
46266;SDS011;31998;48.798;15.066;2022-09-12T12:52:58;2.07;;;1.70;;
46266;SDS011;31998;48.798;15.066;2022-09-12T12:58:01;5.13;;;3.63;;
46266;SDS011;31998;48.798;15.066;2022-09-12T13:00:30;9.07;;;2.40;;
46266;SDS011;31998;48.798;15.066;2022-09-12T13:05:40;3.40;;;3.20;;
46266;SDS011;31998;48.798;15.066;2022-09-12T13:08:17;3.67;;;3.47;;
46266;SDS011;31998;48.798;15.066;2022-09-12T13:10:57;5.13;;;4.60;;
46266;SDS011;31998;48.798;15.066;2022-09-12T13:14:30;1.20;;;1.20;;
46266;SDS011;31998;48.798;15.066;2022-09-12T13:16:30;1.80;;;1.70;;
46266;SDS011;31998;48.798;15.066;2022-09-12T13:19:27;1.60;;;1.60;;
46266;SDS011;31998;48.798;15.066;2022-09-12T13:21:59;2.10;;;1.50;;
46266;SDS011;31998;48.798;15.066;2022-09-12T13:24:26;1.43;;;1.43;;
46266;SDS011;31998;48.798;15.066;2022-09-12T13:26:52;1.40;;;1.40;;
46266;SDS011;31998;48.798;15.066;2022-09-12T13:29:22;3.03;;;1.70;;
46266;SDS011;31998;48.798;15.066;2022-09-12T13:31:53;1.37;;;1.30;;
46266;SDS011;31998;48.798;15.066;2022-09-12T13:34:23;1.30;;;1.30;;
46266;SDS011;31998;48.798;15.066;2022-09-12T13:39:43;2.50;;;1.17;;
46266;SDS011;31998;48.798;15.066;2022-09-12T13:44:58;1.53;;;1.43;;
46266;SDS011;31998;48.798;15.066;2022-09-12T13:47:31;2.00;;;1.60;;
46266;SDS011;31998;48.798;15.066;2022-09-12T13:49:57;2.93;;;1.10;;
46266;SDS011;31998;48.798;15.066;2022-09-12T13:52:26;1.30;;;1.20;;
46266;SDS011;31998;48.798;15.066;2022-09-12T13:54:56;2.60;;;1.47;;
46266;SDS011;31998;48.798;15.066;2022-09-12T13:57:30;1.83;;;1.47;;
46266;SDS011;31998;48.798;15.066;2022-09-12T13:59:56;1.57;;;1.30;;
46266;SDS011;31998;48.798;15.066;2022-09-12T14:02:24;7.33;;;1.70;;
46266;SDS011;31998;48.798;15.066;2022-09-12T14:04:52;1.60;;;1.40;;
46266;SDS011;31998;48.798;15.066;2022-09-12T14:07:33;2.20;;;1.60;;
46266;SDS011;31998;48.798;15.066;2022-09-12T14:10:04;2.43;;;1.53;;
46266;SDS011;31998;48.798;15.066;2022-09-12T14:12:35;1.43;;;1.43;;
46266;SDS011;31998;48.798;15.066;2022-09-12T14:15:26;2.10;;;2.10;;
46266;SDS011;31998;48.798;15.066;2022-09-12T14:17:58;1.83;;;1.73;;
46266;SDS011;31998;48.798;15.066;2022-09-12T14:20:26;2.00;;;1.53;;
46266;SDS011;31998;48.798;15.066;2022-09-12T14:23:00;1.30;;;1.20;;
46266;SDS011;31998;48.798;15.066;2022-09-12T14:25:27;1.50;;;1.50;;
46266;SDS011;31998;48.798;15.066;2022-09-12T14:28:05;1.70;;;1.60;;
46266;SDS011;31998;48.798;15.066;2022-09-12T14:30:35;1.10;;;1.10;;
46266;SDS011;31998;48.798;15.066;2022-09-12T14:40:45;1.43;;;1.33;;
46266;SDS011;31998;48.798;15.066;2022-09-12T14:43:29;1.70;;;1.60;;
46266;SDS011;31998;48.798;15.066;2022-09-12T14:45:58;1.67;;;1.53;;
46266;SDS011;31998;48.798;15.066;2022-09-12T14:48:26;3.20;;;2.00;;
46266;SDS011;31998;48.798;15.066;2022-09-12T14:50:55;2.33;;;2.03;;
46266;SDS011;31998;48.798;15.066;2022-09-12T14:53:23;2.23;;;2.03;;
46266;SDS011;31998;48.798;15.066;2022-09-12T14:56:07;1.50;;;1.50;;
46266;SDS011;31998;48.798;15.066;2022-09-12T14:58:33;1.80;;;1.70;;
46266;SDS011;31998;48.798;15.066;2022-09-12T15:01:00;1.57;;;1.57;;
46266;SDS011;31998;48.798;15.066;2022-09-12T15:05:55;1.30;;;1.30;;
46266;SDS011;31998;48.798;15.066;2022-09-12T15:08:21;2.10;;;2.00;;
46266;SDS011;31998;48.798;15.066;2022-09-12T15:10:46;3.23;;;1.90;;
46266;SDS011;31998;48.798;15.066;2022-09-12T15:13:17;1.43;;;1.43;;
46266;SDS011;31998;48.798;15.066;2022-09-12T15:15:45;1.80;;;1.80;;
46266;SDS011;31998;48.798;15.066;2022-09-12T15:18:15;2.63;;;2.43;;
46266;SDS011;31998;48.798;15.066;2022-09-12T15:20:44;1.60;;;1.50;;
46266;SDS011;31998;48.798;15.066;2022-09-12T15:23:17;2.43;;;2.33;;
46266;SDS011;31998;48.798;15.066;2022-09-12T15:25:45;1.93;;;1.87;;
46266;SDS011;31998;48.798;15.066;2022-09-12T15:28:17;1.97;;;1.87;;
46266;SDS011;31998;48.798;15.066;2022-09-12T15:30:45;3.60;;;2.20;;
46266;SDS011;31998;48.798;15.066;2022-09-12T15:33:14;2.27;;;2.17;;
46266;SDS011;31998;48.798;15.066;2022-09-12T15:35:40;3.17;;;2.97;;
46266;SDS011;31998;48.798;15.066;2022-09-12T15:38:05;4.33;;;3.43;;
46266;SDS011;31998;48.798;15.066;2022-09-12T15:40:31;2.10;;;2.00;;
46266;SDS011;31998;48.798;15.066;2022-09-12T15:42:56;2.20;;;2.10;;
46266;SDS011;31998;48.798;15.066;2022-09-12T15:45:22;2.10;;;2.10;;
46266;SDS011;31998;48.798;15.066;2022-09-12T15:47:51;1.90;;;1.80;;
46266;SDS011;31998;48.798;15.066;2022-09-12T15:50:17;2.60;;;2.50;;
46266;SDS011;31998;48.798;15.066;2022-09-12T15:52:43;2.50;;;2.30;;
46266;SDS011;31998;48.798;15.066;2022-09-12T15:55:11;1.97;;;1.97;;
46266;SDS011;31998;48.798;15.066;2022-09-12T15:57:42;2.67;;;2.57;;
46266;SDS011;31998;48.798;15.066;2022-09-12T16:00:07;2.30;;;2.20;;
46266;SDS011;31998;48.798;15.066;2022-09-12T16:02:33;2.63;;;2.50;;
46266;SDS011;31998;48.798;15.066;2022-09-12T16:04:59;4.37;;;2.43;;
46266;SDS011;31998;48.798;15.066;2022-09-12T16:07:24;2.23;;;2.20;;
46266;SDS011;31998;48.798;15.066;2022-09-12T16:09:49;5.30;;;2.60;;
46266;SDS011;31998;48.798;15.066;2022-09-12T16:12:15;2.60;;;2.50;;
46266;SDS011;31998;48.798;15.066;2022-09-12T16:14:40;2.33;;;2.23;;
46266;SDS011;31998;48.798;15.066;2022-09-12T16:17:06;2.50;;;2.40;;
46266;SDS011;31998;48.798;15.066;2022-09-12T16:19:31;3.50;;;3.13;;
46266;SDS011;31998;48.798;15.066;2022-09-12T16:21:57;2.50;;;2.40;;
46266;SDS011;31998;48.798;15.066;2022-09-12T16:24:22;2.23;;;2.23;;
46266;SDS011;31998;48.798;15.066;2022-09-12T16:26:48;6.43;;;2.83;;
46266;SDS011;31998;48.798;15.066;2022-09-12T16:29:13;4.20;;;3.00;;
46266;SDS011;31998;48.798;15.066;2022-09-12T16:31:38;2.77;;;2.67;;
46266;SDS011;31998;48.798;15.066;2022-09-12T16:34:04;3.80;;;3.00;;
46266;SDS011;31998;48.798;15.066;2022-09-12T16:36:30;2.93;;;2.83;;
46266;SDS011;31998;48.798;15.066;2022-09-12T16:38:55;2.77;;;2.67;;
46266;SDS011;31998;48.798;15.066;2022-09-12T16:41:22;3.00;;;2.90;;
46266;SDS011;31998;48.798;15.066;2022-09-12T16:43:51;4.03;;;3.83;;
46266;SDS011;31998;48.798;15.066;2022-09-12T16:46:17;3.47;;;2.80;;
46266;SDS011;31998;48.798;15.066;2022-09-12T16:48:46;3.77;;;3.23;;
46266;SDS011;31998;48.798;15.066;2022-09-12T16:51:13;3.30;;;3.20;;
46266;SDS011;31998;48.798;15.066;2022-09-12T16:53:40;5.50;;;2.93;;
46266;SDS011;31998;48.798;15.066;2022-09-12T16:56:06;7.47;;;3.30;;
46266;SDS011;31998;48.798;15.066;2022-09-12T16:58:35;5.83;;;2.83;;
46266;SDS011;31998;48.798;15.066;2022-09-12T17:01:17;5.40;;;2.87;;
46266;SDS011;31998;48.798;15.066;2022-09-12T17:03:43;3.60;;;2.60;;
46266;SDS011;31998;48.798;15.066;2022-09-12T17:06:12;5.53;;;3.40;;
46266;SDS011;31998;48.798;15.066;2022-09-12T17:08:41;4.00;;;3.60;;
46266;SDS011;31998;48.798;15.066;2022-09-12T17:11:10;2.77;;;2.67;;
46266;SDS011;31998;48.798;15.066;2022-09-12T17:13:38;3.37;;;3.03;;
46266;SDS011;31998;48.798;15.066;2022-09-12T17:16:07;2.60;;;2.50;;
46266;SDS011;31998;48.798;15.066;2022-09-12T17:18:35;2.93;;;2.87;;
46266;SDS011;31998;48.798;15.066;2022-09-12T17:21:07;3.17;;;3.07;;
46266;SDS011;31998;48.798;15.066;2022-09-12T17:23:33;4.43;;;3.40;;
46266;SDS011;31998;48.798;15.066;2022-09-12T17:25:59;7.50;;;3.20;;
46266;SDS011;31998;48.798;15.066;2022-09-12T17:28:25;4.43;;;4.10;;